createdAt,value
2023-05-02T03:58:08.152Z,14.82
2023-05-02T04:01:15.497Z,14.82
2023-05-02T04:04:18.903Z,14.45
2023-05-02T04:07:21.385Z,14.58
2023-05-02T04:10:24.741Z,14.60
2023-05-02T04:13:29.035Z,14.49
2023-05-02T04:16:31.780Z,14.44
2023-05-02T04:19:34.764Z,14.40
2023-05-02T04:22:39.594Z,14.43
2023-05-02T04:25:42.024Z,14.63
2023-05-02T04:28:44.440Z,14.65
2023-05-02T04:31:48.832Z,14.66
2023-05-02T04:34:51.385Z,14.71
2023-05-02T04:37:53.644Z,14.73
2023-05-02T04:40:56.450Z,15.01
2023-05-02T04:44:00.452Z,14.90
2023-05-02T04:47:04.657Z,14.87
2023-05-02T04:50:07.532Z,14.83
2023-05-02T04:53:11.307Z,14.98
2023-05-02T04:56:13.652Z,15.20
2023-05-02T04:59:16.608Z,15.18
2023-05-02T05:02:18.968Z,15.17
2023-05-02T05:05:21.712Z,15.24
2023-05-02T05:08:24.818Z,15.29
2023-05-02T05:11:27.214Z,15.47
2023-05-02T05:14:31.353Z,15.53
2023-05-02T05:17:34.514Z,15.58
2023-05-02T05:20:37.020Z,15.71
2023-05-02T05:23:39.791Z,15.88
2023-05-02T05:26:42.290Z,15.96
2023-05-02T05:29:45.401Z,16.18
2023-05-02T05:32:47.687Z,16.21
2023-05-02T05:35:50.184Z,16.26
2023-05-02T05:38:52.361Z,16.43
2023-05-02T05:41:55.018Z,16.45
2023-05-02T05:44:57.695Z,16.51
2023-05-02T05:48:00.339Z,16.66
2023-05-02T05:51:06.298Z,16.75
2023-05-02T05:54:09.145Z,16.87
2023-05-02T05:57:11.666Z,17.06
2023-05-02T06:00:14.670Z,17.20
2023-05-02T06:03:17.834Z,17.18
2023-05-02T06:06:21.627Z,17.22
2023-05-02T06:09:24.105Z,17.29
2023-05-02T06:12:26.880Z,17.36
2023-05-02T06:15:29.166Z,17.45
2023-05-02T06:18:32.656Z,17.45
2023-05-02T06:21:37.597Z,17.60
2023-05-02T06:24:40.178Z,17.64
2023-05-02T06:27:42.280Z,17.67
2023-05-02T06:30:44.735Z,17.73
2023-05-02T06:33:46.858Z,17.72
2023-05-02T06:36:49.702Z,17.81
2023-05-02T06:39:51.854Z,17.86
2023-05-02T06:42:54.528Z,17.88
2023-05-02T06:45:57.591Z,17.92
2023-05-02T06:48:59.972Z,17.99
2023-05-02T06:52:02.166Z,18.20
2023-05-02T06:55:05.510Z,18.25
2023-05-02T06:58:07.733Z,18.36
2023-05-02T07:01:10.550Z,18.35
2023-05-02T07:04:12.873Z,18.58
2023-05-02T07:07:18.782Z,18.53
2023-05-02T07:10:21.020Z,18.56
2023-05-02T07:13:23.439Z,18.66
2023-05-02T07:16:25.781Z,18.64
2023-05-02T07:19:28.205Z,18.74
2023-05-02T07:22:30.367Z,18.71
2023-05-02T07:25:32.839Z,18.82
2023-05-02T07:28:34.961Z,18.87
2023-05-02T07:31:37.379Z,18.80
2023-05-02T07:34:39.510Z,18.84
2023-05-02T07:37:42.084Z,18.97
2023-05-02T07:40:44.259Z,19.05
2023-05-02T07:43:46.732Z,19.07
2023-05-02T07:46:49.479Z,19.06
2023-05-02T07:49:53.181Z,19.13
2023-05-02T07:52:56.198Z,19.31
2023-05-02T07:55:58.596Z,19.28
2023-05-02T07:59:00.706Z,19.25
2023-05-02T08:02:04.362Z,19.29
2023-05-02T08:05:07.981Z,19.32
2023-05-02T08:08:10.315Z,19.37
2023-05-02T08:11:13.067Z,19.38
2023-05-02T08:14:16.338Z,19.31
2023-05-02T08:17:18.724Z,19.19
2023-05-02T08:20:22.262Z,19.24
2023-05-02T08:23:24.934Z,19.10
2023-05-02T08:26:27.933Z,19.11
2023-05-02T08:29:31.492Z,19.24
2023-05-02T08:32:33.709Z,19.36
2023-05-02T08:35:36.492Z,19.37
2023-05-02T08:38:38.583Z,19.35
2023-05-02T08:41:41.035Z,19.40
2023-05-02T08:44:43.193Z,19.43
2023-05-02T08:47:47.057Z,19.50
2023-05-02T08:50:50.537Z,19.62
2023-05-02T08:53:54.492Z,19.64
2023-05-02T08:56:59.487Z,19.76
2023-05-02T09:00:02.060Z,19.86
2023-05-02T09:03:31.378Z,19.95
2023-05-02T09:06:35.137Z,19.97
2023-05-02T09:09:37.689Z,19.99
2023-05-02T09:12:40.828Z,20.18
2023-05-02T09:15:43.143Z,20.17
2023-05-02T09:18:48.248Z,20.28
2023-05-02T09:21:50.482Z,20.29
2023-05-02T09:24:57.327Z,20.37
2023-05-02T09:28:01.838Z,20.36
2023-05-02T09:31:09.604Z,20.37
2023-05-02T09:34:17.944Z,20.50
2023-05-02T09:37:36.100Z,20.57
2023-05-02T09:40:38.242Z,20.70
2023-05-02T09:43:41.378Z,20.65
2023-05-02T09:46:45.602Z,20.65
2023-05-02T09:49:49.631Z,20.72
2023-05-02T09:53:05.260Z,20.78
2023-05-02T09:56:08.204Z,20.84
2023-05-02T09:59:14.889Z,21.03
2023-05-02T10:02:18.002Z,21.14
2023-05-02T10:05:21.124Z,21.21
2023-05-02T10:08:27.243Z,21.17
2023-05-02T10:11:32.282Z,21.15
2023-05-02T10:14:41.618Z,21.18
2023-05-02T10:17:48.714Z,21.18
2023-05-02T10:21:08.076Z,21.22
2023-05-02T10:24:11.704Z,21.28
2023-05-02T10:27:14.432Z,21.18
2023-05-02T10:30:17.685Z,21.24
2023-05-02T10:33:21.915Z,21.23
2023-05-02T10:36:24.349Z,21.26
2023-05-02T10:39:27.630Z,21.33
2023-05-02T10:42:30.615Z,21.37
2023-05-02T10:45:34.769Z,21.42
2023-05-02T10:48:38.662Z,21.38
2023-05-02T10:51:42.364Z,21.29
2023-05-02T10:54:45.112Z,21.21
2023-05-02T10:58:02.609Z,21.25
2023-05-02T11:01:30.771Z,21.17
2023-05-02T11:05:03.103Z,21.20
2023-05-02T11:08:30.843Z,21.32
2023-05-02T11:11:43.341Z,21.28
2023-05-02T11:14:48.304Z,21.30
2023-05-02T11:18:16.579Z,21.39
2023-05-02T11:21:31.051Z,21.52
2023-05-02T11:24:40.704Z,21.65
2023-05-02T11:27:45.579Z,21.69
2023-05-02T11:30:48.671Z,21.72
2023-05-02T11:33:57.655Z,21.72
2023-05-02T11:36:59.833Z,21.68
2023-05-02T11:40:14.970Z,21.67
2023-05-02T11:43:19.344Z,21.60
2023-05-02T11:46:21.804Z,21.57
2023-05-02T11:49:24.285Z,21.49
2023-05-02T11:52:26.706Z,21.50
2023-05-02T11:55:28.971Z,21.51
2023-05-02T11:58:33.509Z,21.69
2023-05-02T12:01:36.550Z,21.80
2023-05-02T12:04:45.563Z,21.83
2023-05-02T12:07:50.595Z,21.97
2023-05-02T12:10:56.473Z,21.91
2023-05-02T12:13:58.808Z,21.78
2023-05-02T12:17:02.899Z,21.74
2023-05-02T12:20:07.743Z,21.94
2023-05-02T12:23:10.729Z,21.99
2023-05-02T12:26:20.040Z,22.08
2023-05-02T12:29:22.471Z,22.28
2023-05-02T12:32:32.487Z,22.31
2023-05-02T12:35:36.145Z,22.34
2023-05-02T12:38:38.326Z,22.33
2023-05-02T12:41:46.010Z,22.42
2023-05-02T12:44:51.508Z,22.41
2023-05-02T12:47:53.953Z,22.44
2023-05-02T12:50:56.099Z,22.34
2023-05-02T12:53:58.507Z,22.36
2023-05-02T12:57:02.913Z,22.30
2023-05-02T13:00:06.660Z,22.24
2023-05-02T13:03:10.502Z,22.21
2023-05-02T13:06:13.035Z,22.19
2023-05-02T13:09:15.239Z,22.24
2023-05-02T13:12:18.187Z,22.21
2023-05-02T13:15:20.740Z,22.01
2023-05-02T13:18:23.289Z,21.94
2023-05-02T13:21:25.519Z,21.85
2023-05-02T13:24:27.995Z,21.83
2023-05-02T13:27:30.301Z,21.82
2023-05-02T13:30:33.086Z,21.75
2023-05-02T13:33:35.499Z,21.78
2023-05-02T13:36:44.058Z,21.88
2023-05-02T13:39:46.221Z,21.86
2023-05-02T13:42:48.576Z,21.93
2023-05-02T13:45:52.127Z,21.95
2023-05-02T13:48:54.492Z,21.93
2023-05-02T13:51:56.711Z,22.01
2023-05-02T13:54:59.129Z,21.98
2023-05-02T13:58:01.957Z,21.94
2023-05-02T14:01:04.632Z,21.98
2023-05-02T14:04:08.950Z,22.06
2023-05-02T14:07:11.534Z,22.02
2023-05-02T14:10:13.960Z,22.03
2023-05-02T14:13:16.116Z,22.03
2023-05-02T14:16:18.611Z,22.01
2023-05-02T14:19:20.747Z,22.02
2023-05-02T14:22:23.226Z,22.01
2023-05-02T14:25:25.519Z,22.03
2023-05-02T14:28:28.064Z,21.98
2023-05-02T14:31:30.934Z,22.12
2023-05-02T14:34:35.734Z,22.07
2023-05-02T14:37:38.049Z,21.99
2023-05-02T14:40:40.642Z,22.05
2023-05-02T14:43:42.808Z,22.04
2023-05-02T14:46:45.265Z,21.91
2023-05-02T14:49:47.479Z,21.83
2023-05-02T14:52:56.441Z,21.80
2023-05-02T14:55:58.626Z,21.92
2023-05-02T14:59:01.055Z,21.94
2023-05-02T15:02:03.291Z,21.83
2023-05-02T15:05:07.966Z,21.78
2023-05-02T15:08:10.224Z,21.70
2023-05-02T15:11:12.754Z,21.69
2023-05-02T15:14:14.858Z,21.78
2023-05-02T15:17:17.271Z,21.72
2023-05-02T15:20:19.902Z,21.62
2023-05-02T15:23:22.616Z,21.62
2023-05-02T15:26:26.166Z,21.57
2023-05-02T15:29:28.636Z,21.56
2023-05-02T15:32:30.751Z,21.51
2023-05-02T15:35:33.146Z,21.50
2023-05-02T15:38:39.174Z,21.47
